Time;durP1;ratioP1;P1;durP2;ratioP2;P2;SDS_P1;SDS_P2;PMS_P1;PMS_P2;Temp;Humidity;BMP_temperature;BMP_pressure;BME280_temperature;BME280_humidity;BME280_pressure;Samples;Min_cycle;Max_cycle;Signal;HPM_P1;HPM_P2
2022/08/14 01:02:39;;;;;;;;;;;;;;;;;;;;;
2022/08/14 01:05:06;;;;;;;6.05;4.15;;;;;;;22.43;100.00;99496.06;1776476;79;21088;-77
2022/08/14 01:07:53;;;;;;;;;;;;;;;;;;;;;
2022/08/14 01:10:28;;;;;;;6.42;4.47;;;;;;;22.54;100.00;99521.51;1797907;80;21093;-77
2022/08/14 01:12:54;;;;;;;8.20;4.30;;;;;;;22.66;100.00;99527.27;1792578;78;21552;-77
2022/08/14 01:15:28;;;;;;;5.55;4.00;;;;;;;22.73;100.00;99535.55;1771853;80;21109;-76
2022/08/14 01:23:38;;;;;;;8.68;4.78;;;;;;;22.60;100.00;99528.15;1848656;77;21165;-77
2022/08/14 01:26:12;;;;;;;9.48;4.37;;;;;;;22.67;100.00;99542.02;1882036;74;21043;-77
2022/08/14 01:28:41;;;;;;;10.53;5.50;;;;;;;22.65;100.00;99550.47;1887839;75;21068;-77
2022/08/14 01:31:16;;;;;;;8.15;4.40;;;;;;;22.65;100.00;99550.92;1890884;74;21142;-77
2022/08/14 01:33:44;;;;;;;7.08;4.72;;;;;;;22.71;100.00;99549.22;1867626;76;21155;-76
2022/08/14 01:36:13;;;;;;;8.88;4.53;;;;;;;22.63;100.00;99561.49;1835219;77;21535;-76
2022/08/14 01:38:42;;;;;;;8.65;4.65;;;;;;;22.63;100.00;99561.49;1889073;76;21158;-76
2022/08/14 01:41:12;;;;;;;9.13;4.50;;;;;;;22.61;100.00;99558.61;1888753;76;21122;-76
2022/08/14 01:43:49;;;;;;;8.60;5.10;;;;;;;22.58;100.00;99552.27;1885172;76;21080;-76
2022/08/14 01:46:22;;;;;;;8.90;4.90;;;;;;;22.67;100.00;99569.51;1873367;76;21159;-76
2022/08/14 01:48:51;;;;;;;12.85;4.65;;;;;;;22.67;100.00;99569.51;1878300;76;21045;-77
2022/08/14 01:51:23;;;;;;;10.05;5.37;;;;;;;22.70;100.00;99578.94;1856583;76;21065;-77
2022/08/14 01:53:53;;;;;;;9.45;5.00;;;;;;;22.60;100.00;99581.31;1878529;76;21138;-77
2022/08/14 01:56:21;;;;;;;11.73;5.75;;;;;;;22.68;100.00;99581.65;1872217;76;21044;-77
2022/08/14 01:58:50;;;;;;;11.18;5.08;;;;;;;22.73;100.00;99585.28;1894367;75;21040;-77
2022/08/14 02:01:19;;;;;;;7.42;5.15;;;;;;;22.71;100.00;99596.80;1887244;76;21042;-77
2022/08/14 02:03:47;;;;;;;8.20;4.83;;;;;;;22.75;100.00;99602.20;1864417;75;21105;-77
2022/08/14 02:06:15;;;;;;;5.95;4.20;;;;;;;22.76;100.00;99601.25;1890428;76;21036;-77
2022/08/14 02:08:42;;;;;;;8.10;4.70;;;;;;;22.75;100.00;99602.20;1888125;76;21678;-77
2022/08/14 02:11:23;;;;;;;9.73;4.40;;;;;;;22.63;100.00;99610.38;1887953;76;21099;-77
2022/08/14 02:13:59;;;;;;;9.73;4.85;;;;;;;22.58;100.00;99602.84;1871160;75;21089;-77
2022/08/14 02:16:28;;;;;;;6.87;4.85;;;;;;;22.70;100.00;99598.57;1888674;75;21069;-77
2022/08/14 02:19:00;;;;;;;16.48;6.65;;;;;;;22.75;100.00;99589.11;1888382;76;21213;-77
2022/08/14 02:21:31;;;;;;;9.53;4.40;;;;;;;22.78;100.00;99583.68;1869286;76;21115;-77
2022/08/14 02:24:01;;;;;;;7.40;5.22;;;;;;;22.75;100.00;99573.41;1856524;76;21139;-77
2022/08/14 02:26:31;;;;;;;8.95;4.85;;;;;;;22.70;100.00;99576.80;1860997;76;21053;-77
2022/08/14 02:29:05;;;;;;;8.18;4.55;;;;;;;22.73;100.00;99577.43;1860372;76;21131;-77
2022/08/14 02:31:33;;;;;;;;;;;;;;;22.81;100.00;99578.25;1852581;77;21049;-77
2022/08/14 02:34:05;;;;;;;9.68;4.83;;;;;;;22.85;100.00;99573.63;1848380;77;20117;-77
2022/08/14 02:36:33;;;;;;;8.10;4.40;;;;;;;22.83;100.00;99582.89;1870582;77;21041;-77
2022/08/14 02:39:00;;;;;;;9.23;4.78;;;;;;;22.86;100.00;99585.78;1870374;77;21060;-77
2022/08/14 02:41:30;;;;;;;6.90;4.87;;;;;;;22.85;100.00;99594.58;1850424;77;21002;-77
2022/08/14 02:43:57;;;;;;;7.50;4.40;;;;;;;22.90;100.00;99595.95;1865835;77;21065;-77
2022/08/14 02:46:26;;;;;;;12.65;5.40;;;;;;;22.84;100.00;99600.28;1853280;77;21099;-77
2022/08/14 02:48:54;;;;;;;6.42;5.12;;;;;;;22.88;100.00;99600.93;1863242;77;21035;-77
2022/08/14 02:51:33;;;;;;;;;;;;;;;;;;;;;
2022/08/14 02:53:54;;;;;;;11.50;5.35;;;;;;;22.84;100.00;99617.79;1854969;77;21441;-77
2022/08/14 02:56:22;;;;;;;10.40;6.25;;;;;;;22.72;100.00;99615.03;1852254;77;21448;-77
2022/08/14 02:59:00;;;;;;;8.00;5.47;;;;;;;22.70;100.00;99622.62;1861042;76;21171;-78
2022/08/14 03:01:27;;;;;;;7.67;5.12;;;;;;;22.67;100.00;99628.41;1847544;77;21165;-77
2022/08/14 03:03:55;;;;;;;15.75;6.40;;;;;;;22.74;100.00;99622.78;1856053;77;21586;-77
2022/08/14 03:06:25;;;;;;;11.83;6.00;;;;;;;22.81;100.00;99634.05;1858266;77;21601;-77
2022/08/14 03:08:55;;;;;;;14.55;5.72;;;;;;;22.87;100.00;99627.58;1850756;77;21057;-78
2022/08/14 03:16:53;;;;;;;;;;;;;;;22.80;100.00;99638.93;1755923;80;21187;-77
2022/08/14 03:19:14;;;;;;;13.25;6.28;;;;;;;22.72;100.00;99632.50;1744325;82;20448;-76
2022/08/14 03:27:00;;;;;;;;;;;;;;;;;;;;;
2022/08/14 03:29:39;;;;;;;;;;;;;;;;;;;;;
2022/08/14 04:21:18;;;;;;;6.65;4.85;;;;;;;20.76;100.00;98296.72;1780288;79;21139;-79
2022/08/14 04:23:49;;;;;;;11.83;6.70;;;;;;;20.72;100.00;98270.52;1756848;81;21109;-79
2022/08/14 04:26:20;;;;;;;7.70;5.40;;;;;;;20.74;100.00;98259.49;1766293;80;21164;-79
2022/08/14 04:28:48;;;;;;;7.78;5.42;;;;;;;20.67;100.00;98259.16;1788523;78;21156;-79
2022/08/14 04:31:17;;;;;;;6.87;5.33;;;;;;;20.59;100.00;98251.91;1782242;78;21083;-79
2022/08/14 04:33:57;;;;;;;;;;;;;;;;;;;;;
2022/08/14 04:36:22;;;;;;;7.83;5.05;;;;;;;20.71;100.00;98263.18;1788177;80;21500;-79
2022/08/14 04:44:23;;;;;;;7.17;5.60;;;;;;;20.47;100.00;98322.81;1770191;80;21159;-79
2022/08/14 04:49:36;;;;;;;8.30;5.37;;;;;;;20.53;100.00;98339.78;1794523;80;21634;-80
2022/08/14 04:52:04;;;;;;;7.60;5.42;;;;;;;20.54;100.00;98350.56;1796016;80;21064;-80
2022/08/14 04:54:31;;;;;;;6.45;5.20;;;;;;;20.52;100.00;98363.36;1789391;80;21141;-80
2022/08/14 04:56:59;;;;;;;10.88;5.80;;;;;;;20.47;100.00;98352.81;1792463;80;21204;-80
2022/08/14 04:59:26;;;;;;;6.47;5.35;;;;;;;20.48;100.00;98348.41;1794555;80;21601;-80
2022/08/14 05:01:54;;;;;;;7.45;5.60;;;;;;;20.48;100.00;98354.46;1795281;80;21248;-79
2022/08/14 05:04:23;;;;;;;7.05;5.37;;;;;;;20.56;100.00;98351.26;1794016;80;21053;-79
2022/08/14 05:06:52;;;;;;;7.28;5.75;;;;;;;20.55;100.00;98335.75;1789742;80;21111;-79
2022/08/14 05:09:19;;;;;;;6.20;4.53;;;;;;;20.57;100.00;98341.20;1787404;80;21147;-79
2022/08/14 05:11:48;;;;;;;5.70;4.60;;;;;;;20.60;100.00;97771.03;1788365;80;21190;-78
2022/08/14 05:14:17;;;;;;;6.10;4.60;;;;;;;20.46;100.00;97927.36;1794103;80;21095;-79
2022/08/14 05:16:46;;;;;;;8.13;5.42;;;;;;;20.47;100.00;98005.96;1789941;80;21064;-79
2022/08/14 05:19:15;;;;;;;6.05;5.20;;;;;;;20.59;100.00;98066.72;1787952;80;21240;-79
2022/08/14 05:21:42;;;;;;;7.00;5.28;;;;;;;20.49;100.00;98112.77;1795979;79;21178;-79
2022/08/14 05:24:11;;;;;;;6.95;4.78;;;;;;;20.49;100.00;98141.45;1795177;80;21032;-78
2022/08/14 05:26:45;;;;;;;7.53;4.97;;;;;;;20.42;100.00;98182.80;1773149;80;21107;-78
2022/08/14 05:29:09;;;;;;;5.33;4.75;;;;;;;20.50;100.00;98208.30;1790271;79;21155;-78
2022/08/14 05:31:39;;;;;;;5.53;4.92;;;;;;;20.61;100.00;98216.58;1795517;80;21133;-79
2022/08/14 05:34:08;;;;;;;5.80;4.67;;;;;;;20.56;100.00;98225.25;1794831;79;21080;-79
2022/08/14 05:36:36;;;;;;;7.00;4.33;;;;;;;20.53;100.00;98243.27;1793577;80;21090;-78
2022/08/14 05:39:05;;;;;;;5.75;4.78;;;;;;;20.49;100.00;98245.77;1791587;80;21112;-78
2022/08/14 05:41:33;;;;;;;5.28;4.60;;;;;;;20.48;100.00;98250.60;1789161;80;21072;-78
2022/08/14 05:44:01;;;;;;;6.00;5.40;;;;;;;20.49;100.00;98262.72;1787327;80;21201;-78
2022/08/14 05:46:28;;;;;;;5.87;5.25;;;;;;;20.48;100.00;98281.91;1794429;80;21169;-78
2022/08/14 05:48:58;;;;;;;5.67;5.17;;;;;;;20.57;100.00;98276.45;1789082;80;21230;-79
2022/08/14 05:51:27;;;;;;;6.28;5.40;;;;;;;20.62;100.00;98272.55;1793603;80;21131;-78
2022/08/14 05:53:55;;;;;;;6.42;4.87;;;;;;;20.63;100.00;98262.95;1792365;80;21139;-78
2022/08/14 05:56:24;;;;;;;6.17;5.25;;;;;;;20.59;100.00;98271.97;1792368;79;21260;-80
2022/08/14 05:58:53;;;;;;;5.40;4.90;;;;;;;20.60;100.00;98277.53;1776167;80;21074;-79
2022/08/14 06:01:20;;;;;;;6.50;5.90;;;;;;;20.66;100.00;98284.05;1812917;77;21181;-80
2022/08/14 06:03:48;;;;;;;5.85;5.20;;;;;;;20.62;100.00;98294.72;1829881;77;21193;-80
2022/08/14 06:06:15;;;;;;;6.25;5.65;;;;;;;20.61;100.00;98295.67;1822871;78;21093;-80
2022/08/14 06:08:43;;;;;;;6.78;5.47;;;;;;;20.62;100.00;98299.94;1820258;78;21477;-78
2022/08/14 06:11:11;;;;;;;8.63;6.45;;;;;;;20.66;100.00;98291.38;1836210;78;21165;-80
2022/08/14 06:13:42;;;;;;;7.62;6.33;;;;;;;20.75;100.00;98290.69;1829443;77;21184;-79
2022/08/14 06:48:26;;;;;;;8.93;6.00;;;;;;;20.61;100.00;98308.72;1920810;71;21168;-77
2022/08/14 06:51:06;;;;;;;6.00;4.85;;;;;;;20.65;100.00;98317.62;1857667;74;21197;-78
2022/08/14 06:53:35;;;;;;;5.95;5.35;;;;;;;20.66;100.00;98319.27;1794601;77;21162;-77
2022/08/14 06:59:24;;;;;;;5.75;4.97;;;;;;;21.01;100.00;98307.89;1884946;75;21078;-77
2022/08/14 07:07:40;;;;;;;6.87;5.30;;;;;;;21.09;100.00;98369.92;1847405;75;21148;-78
2022/08/14 07:10:08;;;;;;;6.33;5.78;;;;;;;21.09;100.00;98369.92;1871035;75;21087;-77
2022/08/14 07:13:16;;;;;;;;;;;;;;;;;;;;;
2022/08/14 07:15:35;;;;;;;6.05;5.28;;;;;;;21.17;100.00;98427.59;1797051;78;21720;-77
2022/08/14 07:18:14;;;;;;;5.70;5.10;;;;;;;21.18;100.00;98441.48;1823072;78;21162;-77
2022/08/14 07:20:35;;;;;;;5.97;5.42;;;;;;;21.29;100.00;98466.75;1847942;76;21122;-77
2022/08/14 07:23:13;;;;;;;9.18;6.12;;;;;;;21.29;100.00;98466.75;1882285;76;21063;-78
2022/08/14 07:25:58;;;;;;;;;;;;;;;;;;;;;
2022/08/14 07:39:03;;;;;;;5.62;5.12;;;;;;;21.09;100.00;98533.08;1876285;75;21245;-77
2022/08/14 07:44:00;;;;;;;6.83;5.22;;;;;;;20.97;100.00;98553.13;1896202;73;21056;-79
2022/08/14 07:50:38;;;;;;;;;;;;;;;;;;;;;
2022/08/14 07:58:06;;;;;;;6.25;4.83;;;;;;;20.67;100.00;98597.00;1918053;73;21151;-78
2022/08/14 08:03:40;;;;;;;5.28;4.78;;;;;;;20.65;100.00;98594.14;1900495;74;21140;-86
2022/08/14 08:06:07;;;;;;;7.05;5.45;;;;;;;20.73;100.00;98599.63;1928244;74;21056;-76
2022/08/14 08:08:35;;;;;;;6.37;4.92;;;;;;;20.82;100.00;98606.77;1937777;74;21143;-77
2022/08/14 08:11:02;;;;;;;6.33;5.50;;;;;;;20.71;100.00;98606.72;1889880;75;21095;-77
2022/08/14 08:13:33;;;;;;;5.45;4.65;;;;;;;20.76;100.00;98616.34;1965929;73;21087;-76
2022/08/14 08:16:04;;;;;;;5.47;4.97;;;;;;;20.76;100.00;98616.34;1890409;76;21138;-77
2022/08/14 08:18:31;;;;;;;5.28;4.78;;;;;;;20.81;100.00;98606.88;1870028;76;21178;-77
2022/08/14 08:20:59;;;;;;;5.92;5.42;;;;;;;20.91;100.00;98601.39;1889983;76;21064;-77
2022/08/14 08:23:28;;;;;;;5.75;5.10;;;;;;;20.93;100.00;98602.59;1890571;76;21134;-77
2022/08/14 08:25:57;;;;;;;6.55;5.20;;;;;;;21.01;100.00;98601.05;1871066;74;21061;-77
2022/08/14 08:28:30;;;;;;;5.95;5.40;;;;;;;20.96;100.00;98598.42;1898726;75;21937;-77
2022/08/14 08:31:00;;;;;;;6.05;5.03;;;;;;;21.07;100.00;98595.03;1873875;76;21169;-77
2022/08/14 08:33:35;;;;;;;9.40;5.55;;;;;;;21.08;100.00;98589.67;1870148;76;21172;-77
2022/08/14 08:36:02;;;;;;;6.58;5.15;;;;;;;21.16;100.00;98586.50;1896775;74;21124;-78
2022/08/14 08:38:31;;;;;;;5.37;4.87;;;;;;;21.24;100.00;98575.47;1900166;75;21102;-77
2022/08/14 08:41:02;;;;;;;5.40;4.90;;;;;;;21.30;100.00;98572.87;1900848;74;21038;-77
2022/08/14 08:44:01;;;;;;;6.20;5.60;;;;;;;21.36;100.00;98568.00;1894690;75;21075;-77
2022/08/14 08:46:10;;;;;;;6.33;5.72;;;;;;;21.37;100.00;98554.02;1865172;75;21131;-77
2022/08/14 08:48:51;;;;;;;11.53;6.45;;;;;;;21.32;100.00;98550.91;1872106;76;21658;-77
2022/08/14 08:51:34;;;;;;;7.50;6.17;;;;;;;21.37;100.00;98543.57;1871184;76;21033;-77
2022/08/14 08:54:08;;;;;;;5.87;5.28;;;;;;;21.45;100.00;98534.32;1869669;76;21118;-77
2022/08/14 08:56:43;;;;;;;6.20;5.62;;;;;;;21.52;100.00;98531.56;1870780;75;21025;-78
2022/08/14 09:05:08;;;;;;;6.40;5.80;;;;;;;21.58;100.00;98491.91;1807618;74;21199;-77
2022/08/14 09:07:35;;;;;;;7.37;6.08;;;;;;;21.58;100.00;98489.30;1807418;79;21057;-77
2022/08/14 09:10:10;;;;;;;7.05;6.10;;;;;;;21.60;100.00;98486.57;1812831;79;21114;-77
2022/08/14 09:12:58;;;;;;;6.47;5.87;;;;;;;21.59;100.00;98480.50;1783339;79;21729;-77
2022/08/14 09:15:22;;;;;;;7.65;6.17;;;;;;;21.67;100.00;98464.70;1780329;80;21154;-77
2022/08/14 09:17:51;;;;;;;6.65;6.05;;;;;;;21.75;100.00;98455.34;1795572;78;21812;-77
2022/08/14 09:20:20;;;;;;;6.62;6.03;;;;;;;21.77;100.00;98454.73;1791174;78;21135;-77
2022/08/14 09:23:10;;;;;;;8.80;6.65;;;;;;;21.77;100.00;98454.73;1775634;80;21165;-80
2022/08/14 09:26:44;;;;;;;;;;;;;;;;;;;;;
2022/08/14 09:37:36;;;;;;;;;;;;;;;;;;;;;
2022/08/14 09:40:46;;;;;;;;;;;;;;;;;;;;;
2022/08/14 09:53:46;;;;;;;;;;;;;;;;;;;;;
2022/08/14 11:26:33;;;;;;;11.30;9.80;;;;;;;22.55;100.00;98630.81;1663461;81;21290;-79
2022/08/14 11:29:52;;;;;;;13.35;9.53;;;;;;;22.68;100.00;98622.84;1646240;84;21107;-78
2022/08/14 11:31:50;;;;;;;;;;;;;;;;;;;;;
2022/08/14 11:34:21;;;;;;;;;;;;;;;;;;;;;
2022/08/14 11:36:45;;;;;;;13.25;9.65;;;;;;;22.84;100.00;98628.14;1662237;84;21162;-78
2022/08/14 11:39:22;;;;;;;12.25;9.18;;;;;;;22.86;100.00;98634.91;1671374;82;21174;-78
2022/08/14 11:42:06;;;;;;;;;;;;;;;;;;;;;
2022/08/14 11:44:22;;;;;;;10.78;8.85;;;;;;;23.08;100.00;98634.44;1718558;81;21182;-77
2022/08/14 11:46:50;;;;;;;10.53;9.25;;;;;;;23.23;100.00;98635.45;1778690;80;21068;-77
2022/08/14 11:49:37;;;;;;;;;;;;;;;;;;;;;
2022/08/14 11:52:06;;;;;;;10.45;9.33;;;;;;;23.11;100.00;98674.78;1782914;78;21213;-78
2022/08/14 11:54:32;;;;;;;12.53;8.38;;;;;;;23.17;100.00;98671.67;1787245;79;21091;-77
2022/08/14 11:57:04;;;;;;;12.75;9.35;;;;;;;23.36;100.00;98666.23;1787746;79;21548;-77
2022/08/14 11:59:36;;;;;;;14.98;9.40;;;;;;;23.35;100.00;98684.70;1786973;79;21252;-78
2022/08/14 12:02:13;;;;;;;;;;;;;;;23.27;100.00;98692.70;1793532;79;21162;-75
2022/08/14 12:04:51;;;;;;;11.22;9.33;;;;;;;23.52;100.00;98672.34;1788150;79;20191;-75
2022/08/14 12:07:20;;;;;;;11.80;9.55;;;;;;;23.51;100.00;98669.85;1778839;79;21510;-75
2022/08/14 12:09:50;;;;;;;15.65;9.13;;;;;;;23.29;100.00;98699.09;1790431;79;21485;-75
2022/08/14 12:12:20;;;;;;;13.35;9.08;;;;;;;23.59;100.00;98680.52;1786229;79;21100;-75
2022/08/14 12:14:55;;;;;;;12.47;9.55;;;;;;;23.63;100.00;98699.42;1790423;79;21029;-75
2022/08/14 12:17:20;;;;;;;14.00;8.90;;;;;;;23.76;100.00;98707.09;1763121;80;21488;-75
2022/08/14 12:19:53;;;;;;;10.55;9.08;;;;;;;23.89;100.00;98695.94;1773940;79;21126;-75
2022/08/14 12:22:38;;;;;;;12.28;9.05;;;;;;;23.85;100.00;98710.27;1766287;79;21104;-75
2022/08/14 12:25:09;;;;;;;12.03;9.25;;;;;;;23.80;100.00;98726.85;1794097;79;21056;-75
2022/08/14 12:27:42;;;;;;;10.58;7.97;;;;;;;23.74;100.00;98727.38;1815878;78;21516;-75
2022/08/14 12:30:14;;;;;;;10.10;8.60;;;;;;;23.88;100.00;98708.68;1811596;79;21075;-75
2022/08/14 12:32:48;;;;;;;11.80;9.05;;;;;;;23.77;100.00;98710.91;1779795;79;21106;-75
2022/08/14 12:35:18;;;;;;;10.38;8.50;;;;;;;23.79;100.00;98713.40;1808257;78;21135;-75
2022/08/14 12:37:49;;;;;;;13.72;9.50;;;;;;;23.61;100.00;98757.25;1797691;78;21563;-76
2022/08/14 12:40:18;;;;;;;9.10;8.20;;;;;;;23.83;100.00;98762.00;1801696;78;21123;-75
2022/08/14 12:42:50;;;;;;;14.85;9.10;;;;;;;23.90;100.00;98774.11;1793593;78;21100;-77
2022/08/14 12:45:22;;;;;;;13.40;9.13;;;;;;;23.78;100.00;98789.09;1801785;79;21088;-76
2022/08/14 12:48:08;;;;;;;11.05;8.95;;;;;;;23.84;100.00;98793.33;1789592;79;21190;-77
2022/08/14 12:51:01;;;;;;;;;;;;;;;;;;;;;
2022/08/14 12:53:46;;;;;;;12.45;8.95;;;;;;;23.56;100.00;98817.89;1749701;82;21143;-77
2022/08/14 12:56:36;;;;;;;14.15;9.40;;;;;;;23.41;100.00;98833.09;1712393;83;21325;-77
2022/08/14 13:00:17;;;;;;;;;;;;;;;;;;;;;
2022/08/14 13:02:16;;;;;;;12.70;10.00;;;;;;;23.47;100.00;98806.02;1655625;84;21151;-77
2022/08/14 13:07:42;;;;;;;;;;;;;;;;;;;;;
2022/08/14 13:10:20;;;;;;;;;;;;;;;;;;;;;
2022/08/14 13:15:18;;;;;;;17.12;10.65;;;;;;;23.15;100.00;98797.98;1556506;90;21550;-77
2022/08/14 13:18:09;;;;;;;;;;;;;;;;;;;;;
2022/08/14 13:20:50;;;;;;;11.83;9.45;;;;;;;23.12;100.00;98787.75;1592998;89;21185;-77
2022/08/14 13:23:16;;;;;;;;;;;;;;;;;;;;;
2022/08/14 13:28:41;;;;;;;;;;;;;;;;;;;;;
2022/08/14 13:31:26;;;;;;;10.55;8.18;;;;;;;22.67;100.00;98793.92;1631142;87;21627;-77
2022/08/14 13:33:51;;;;;;;12.18;8.78;;;;;;;22.80;100.00;98778.05;1633907;86;21137;-77
2022/08/14 13:36:18;;;;;;;10.80;8.60;;;;;;;23.08;100.00;98759.33;1751170;81;21097;-77
2022/08/14 13:38:49;;;;;;;9.33;8.30;;;;;;;23.15;100.00;98769.17;1787454;78;21049;-77
2022/08/14 13:41:22;;;;;;;9.23;7.28;;;;;;;23.30;100.00;98761.04;1797344;78;21075;-77
2022/08/14 13:43:49;;;;;;;11.10;7.95;;;;;;;23.54;100.00;98746.91;1767765;80;21170;-77
2022/08/14 13:46:22;;;;;;;9.15;7.25;;;;;;;23.64;100.00;98768.77;1845130;78;21593;-77
2022/08/14 13:48:50;;;;;;;8.68;7.10;;;;;;;23.78;100.00;98785.16;1832077;76;21460;-77
2022/08/14 13:51:17;;;;;;;7.60;6.80;;;;;;;23.89;100.00;98822.27;1845602;77;21054;-77
2022/08/14 13:53:48;;;;;;;9.93;7.10;;;;;;;23.79;100.00;98841.87;1828442;77;21088;-77
2022/08/14 13:56:16;;;;;;;10.63;8.30;;;;;;;23.94;100.00;98864.20;1837120;77;21051;-77
2022/08/14 13:58:46;;;;;;;12.23;7.55;;;;;;;23.80;100.00;98877.61;1828248;77;21136;-76
2022/08/14 14:01:17;;;;;;;11.33;7.08;;;;;;;23.77;100.00;98869.52;1835151;77;21136;-76
2022/08/14 14:03:48;;;;;;;8.65;7.25;;;;;;;23.62;100.00;98886.02;1834617;77;21106;-77
2022/08/14 14:06:16;;;;;;;8.45;7.25;;;;;;;23.76;100.00;98890.15;1831284;78;21128;-77
2022/08/14 14:08:46;;;;;;;9.85;7.25;;;;;;;23.80;100.00;98903.36;1817958;78;21095;-76
2022/08/14 14:11:16;;;;;;;12.53;9.05;;;;;;;23.76;100.00;98926.85;1825458;78;21125;-76
2022/08/14 14:13:47;;;;;;;11.45;7.60;;;;;;;23.74;100.00;98930.06;1832049;78;21026;-76
2022/08/14 14:16:19;;;;;;;8.05;7.00;;;;;;;23.71;100.00;98935.08;1807112;78;21183;-76
2022/08/14 14:18:54;;;;;;;9.63;7.45;;;;;;;24.05;100.00;98921.48;1843430;77;21587;-76
2022/08/14 14:21:31;;;;;;;10.50;7.15;;;;;;;24.16;100.00;98908.84;1844251;76;21102;-76
2022/08/14 14:23:52;;;;;;;12.10;7.85;;;;;;;24.10;100.00;98915.40;1825724;77;21159;-76
2022/08/14 14:26:22;;;;;;;9.53;6.95;;;;;;;24.30;100.00;98939.19;1833518;76;21090;-76
2022/08/14 14:28:52;;;;;;;10.63;7.65;;;;;;;24.17;100.00;98967.75;1829379;77;21056;-76
2022/08/14 14:31:23;;;;;;;9.73;7.25;;;;;;;24.31;100.00;98956.12;1830248;77;21114;-76
2022/08/14 14:33:52;;;;;;;12.98;7.67;;;;;;;24.31;100.00;98950.02;1826685;77;21117;-76
2022/08/14 14:36:23;;;;;;;11.22;7.12;;;;;;;24.18;100.00;98961.53;1826216;77;21566;-76
2022/08/14 14:38:56;;;;;;;10.65;6.83;;;;;;;24.20;100.00;98971.41;1834782;77;21147;-76
2022/08/14 14:41:27;;;;;;;9.40;6.62;;;;;;;24.38;100.00;98980.05;1828444;77;21144;-76
2022/08/14 14:43:57;;;;;;;7.05;6.22;;;;;;;24.39;100.00;98993.52;1827846;77;21136;-76
2022/08/14 14:46:32;;;;;;;9.73;5.92;;;;;;;24.60;100.00;98991.38;1811493;77;21162;-76
2022/08/14 14:48:55;;;;;;;10.40;5.97;;;;;;;24.63;100.00;98993.76;1832059;77;21184;-76
2022/08/14 14:51:23;;;;;;;7.17;6.25;;;;;;;24.55;100.00;99016.72;1829941;77;21177;-76
2022/08/14 14:53:51;;;;;;;8.58;6.05;;;;;;;24.49;100.00;99042.16;1820336;77;21207;-76
2022/08/14 14:56:21;;;;;;;10.05;6.53;;;;;;;24.52;100.00;99072.56;1833872;77;21122;-76
2022/08/14 14:58:48;;;;;;;9.25;6.62;;;;;;;24.65;100.00;99058.80;1828800;77;21073;-76
2022/08/14 15:01:22;;;;;;;9.10;6.87;;;;;;;24.72;100.00;99032.86;1824536;77;21133;-76
2022/08/14 15:03:48;;;;;;;8.80;7.00;;;;;;;24.70;100.00;99020.33;1835096;77;21532;-76
2022/08/14 15:06:30;;;;;;;;;;;;;;;;;;;;;
2022/08/14 15:09:04;;;;;;;8.68;6.30;;;;;;;24.74;100.00;99025.20;1810252;78;21083;-76
2022/08/14 15:11:38;;;;;;;10.43;5.83;;;;;;;24.82;100.00;99021.11;1781341;77;21166;-76
2022/08/14 15:14:08;;;;;;;10.80;7.08;;;;;;;24.79;100.00;99051.56;1828690;77;21169;-76
2022/08/14 15:16:40;;;;;;;12.23;7.72;;;;;;;24.96;100.00;99043.13;1823648;77;21598;-76
2022/08/14 15:19:10;;;;;;;9.93;8.30;;;;;;;25.05;100.00;98998.64;1826330;77;21209;-76
2022/08/14 15:21:37;;;;;;;11.90;8.40;;;;;;;25.06;100.00;98962.23;1823888;76;21129;-76
2022/08/14 15:24:06;;;;;;;12.15;8.18;;;;;;;25.09;100.00;98959.32;1826138;77;21165;-76
2022/08/14 15:26:34;;;;;;;10.38;7.75;;;;;;;25.10;100.00;98943.43;1840335;76;21141;-76
2022/08/14 15:29:04;;;;;;;10.88;7.55;;;;;;;24.95;100.00;98948.22;1833919;77;21045;-76
2022/08/14 15:31:39;;;;;;;9.85;7.00;;;;;;;24.76;100.00;98973.03;1813120;77;21135;-76
2022/08/14 15:34:10;;;;;;;7.83;6.65;;;;;;;24.73;100.00;98971.03;1837546;76;21212;-76
2022/08/14 15:36:40;;;;;;;10.50;7.47;;;;;;;24.71;100.00;98973.41;1844363;76;21137;-76
2022/08/14 15:39:07;;;;;;;9.18;7.50;;;;;;;24.55;100.00;98969.94;1829641;77;21088;-75
2022/08/14 15:41:35;;;;;;;9.43;7.65;;;;;;;24.61;100.00;98962.84;1829245;77;21148;-75
2022/08/14 15:44:02;;;;;;;8.93;7.37;;;;;;;24.51;100.00;98965.44;1829726;77;21143;-76
2022/08/14 15:46:31;;;;;;;9.15;7.53;;;;;;;24.54;100.00;98981.41;1832252;77;21151;-76
2022/08/14 15:48:59;;;;;;;10.90;8.80;;;;;;;24.39;100.00;98996.61;1826576;76;21167;-76
2022/08/14 15:51:30;;;;;;;17.02;9.75;;;;;;;24.16;100.00;99008.04;1827828;77;21172;-75
2022/08/14 15:53:58;;;;;;;10.00;8.23;;;;;;;24.06;100.00;99006.61;1831912;77;21137;-76
2022/08/14 15:56:26;;;;;;;12.25;7.62;;;;;;;23.98;100.00;98993.28;1835081;76;21508;-76
2022/08/14 15:58:57;;;;;;;12.07;8.68;;;;;;;23.91;100.00;98985.08;1831124;77;21147;-76
2022/08/14 16:01:24;;;;;;;13.38;8.63;;;;;;;23.85;100.00;98984.28;1831558;77;21087;-76
2022/08/14 16:03:54;;;;;;;10.50;8.10;;;;;;;23.85;100.00;98984.28;1832582;77;21129;-75
2022/08/14 16:06:29;;;;;;;12.10;8.33;;;;;;;23.87;100.00;98981.51;1832972;77;21134;-76
2022/08/14 16:08:55;;;;;;;10.45;8.85;;;;;;;23.92;100.00;98980.18;1831729;77;21143;-75
2022/08/14 16:11:23;;;;;;;15.95;10.05;;;;;;;23.88;100.00;98972.21;1813361;78;21122;-76
2022/08/14 16:13:51;;;;;;;12.55;10.30;;;;;;;23.82;100.00;98964.86;1832289;77;21162;-76
2022/08/14 16:16:24;;;;;;;12.80;10.13;;;;;;;23.81;100.00;98956.61;1832688;76;21539;-76
2022/08/14 16:18:57;;;;;;;11.33;9.38;;;;;;;23.62;100.00;98971.22;1802426;77;21091;-76
2022/08/14 16:21:29;;;;;;;11.22;9.53;;;;;;;23.56;100.00;98963.83;1833020;76;21044;-76
2022/08/14 16:24:07;;;;;;;14.27;10.53;;;;;;;23.39;100.00;98960.75;1833832;78;21132;-81
2022/08/14 16:26:34;;;;;;;10.85;9.10;;;;;;;23.41;100.00;98952.31;1803393;77;21969;-76
2022/08/14 16:29:04;;;;;;;11.78;10.18;;;;;;;23.51;100.00;98943.24;1829056;76;21226;-76
2022/08/14 16:31:31;;;;;;;13.18;10.23;;;;;;;23.41;100.00;98945.76;1836838;77;21178;-76
2022/08/14 16:33:59;;;;;;;13.48;10.45;;;;;;;23.42;100.00;98943.95;1821864;78;21166;-76
2022/08/14 16:36:27;;;;;;;11.55;9.75;;;;;;;23.28;100.00;98940.62;1832191;76;21431;-76
2022/08/14 16:38:58;;;;;;;12.50;9.70;;;;;;;23.32;100.00;98930.25;1831627;77;21205;-76
2022/08/14 16:41:29;;;;;;;12.45;9.73;;;;;;;23.25;100.00;98934.77;1830535;76;21189;-76
2022/08/14 16:44:05;;;;;;;14.47;10.38;;;;;;;23.20;100.00;98925.48;1829555;78;21179;-76
2022/08/14 16:46:42;;;;;;;12.82;9.15;;;;;;;23.28;100.00;98920.97;1835230;77;21041;-76
2022/08/14 16:49:09;;;;;;;13.03;10.70;;;;;;;23.53;100.00;98907.72;1831596;78;21068;-76
2022/08/14 16:51:39;;;;;;;12.75;10.38;;;;;;;23.45;100.00;98912.27;1840392;78;21243;-76
2022/08/14 16:54:09;;;;;;;15.45;11.15;;;;;;;23.37;100.00;98922.06;1813004;77;21573;-76
2022/08/14 16:56:44;;;;;;;15.55;10.85;;;;;;;23.01;100.00;98917.39;1813072;78;21030;-76
2022/08/14 16:59:15;;;;;;;16.02;10.95;;;;;;;23.23;100.00;98899.55;1831701;77;21074;-76
2022/08/14 17:01:44;;;;;;;13.83;10.35;;;;;;;23.27;100.00;98889.18;1824010;76;21501;-76
2022/08/14 17:04:17;;;;;;;11.20;10.00;;;;;;;23.47;100.00;98893.34;1833216;77;21044;-76
2022/08/14 17:06:52;;;;;;;14.93;10.48;;;;;;;23.54;100.00;98905.47;1814681;77;21186;-76
2022/08/14 17:09:34;;;;;;;16.17;11.28;;;;;;;23.45;100.00;98903.95;1814000;78;21044;-76
2022/08/14 17:12:05;;;;;;;11.55;9.30;;;;;;;23.52;100.00;98915.23;1800717;78;21744;-76
2022/08/14 17:14:56;;;;;;;13.90;10.00;;;;;;;23.56;100.00;98909.63;1816132;77;21461;-76
2022/08/14 17:17:52;;;;;;;15.03;10.88;;;;;;;23.58;100.00;98906.89;1816423;78;21105;-76
2022/08/14 17:20:16;;;;;;;12.05;9.50;;;;;;;23.34;100.00;98918.34;1828248;76;21159;-76
2022/08/14 17:22:52;;;;;;;14.75;10.88;;;;;;;23.42;100.00;98901.56;1856631;77;21061;-76
2022/08/14 17:25:28;;;;;;;14.43;11.10;;;;;;;23.04;100.00;98913.23;1832740;76;21059;-76
2022/08/14 17:28:17;;;;;;;15.28;9.95;;;;;;;22.98;100.00;98903.25;1821555;76;21164;-76
2022/08/14 17:30:56;;;;;;;11.97;9.90;;;;;;;22.88;100.00;98900.02;1789918;79;21142;-76
2022/08/14 17:33:33;;;;;;;13.43;9.35;;;;;;;22.76;100.00;98901.81;1799304;78;21096;-76
2022/08/14 17:36:19;;;;;;;13.10;9.33;;;;;;;22.75;100.00;98898.00;1772904;79;21122;-76
2022/08/14 17:39:03;;;;;;;14.35;9.60;;;;;;;22.86;100.00;98885.39;1787084;79;21109;-76
2022/08/14 17:41:33;;;;;;;12.03;8.88;;;;;;;22.94;100.00;98887.77;1785425;79;21087;-76